createdAt,value
2022-08-22T00:00:23.245Z,13.89
2022-08-22T00:02:47.156Z,14.86
2022-08-22T00:03:26.544Z,14.35
2022-08-22T00:06:32.175Z,13.45
2022-08-22T00:10:08.771Z,13.54
2022-08-22T00:13:08.120Z,13.26
2022-08-22T00:16:09.305Z,13.86
2022-08-22T00:19:15.925Z,14.09
2022-08-22T00:22:12.429Z,14.13
2022-08-22T00:25:28.448Z,14.07
2022-08-22T00:28:24.530Z,14.09
2022-08-22T00:31:36.711Z,13.90
2022-08-22T00:34:34.168Z,14.22
2022-08-22T00:37:32.365Z,14.06
2022-08-22T00:40:43.723Z,14.11
2022-08-22T00:44:04.645Z,13.96
2022-08-22T00:47:19.878Z,14.34
2022-08-22T00:50:09.712Z,14.18
2022-08-22T00:53:34.874Z,14.34
2022-08-22T00:56:47.987Z,14.15
2022-08-22T00:59:56.278Z,14.61
2022-08-22T01:03:18.552Z,14.20
2022-08-22T01:06:20.676Z,14.22
2022-08-22T01:09:27.027Z,13.86
2022-08-22T01:12:33.380Z,13.82
2022-08-22T01:15:25.967Z,13.61
2022-08-22T01:18:29.959Z,13.68
2022-08-22T01:21:51.493Z,13.74
2022-08-22T01:25:18.447Z,14.04
2022-08-22T01:28:50.480Z,14.33
2022-08-22T01:31:46.516Z,14.23
2022-08-22T01:35:14.766Z,14.02
2022-08-22T01:38:26.105Z,14.02
2022-08-22T01:41:24.732Z,13.80
2022-08-22T01:44:45.141Z,14.10
2022-08-22T01:47:54.452Z,13.88
2022-08-22T01:50:47.292Z,14.08
2022-08-22T01:53:42.676Z,13.71
2022-08-22T01:56:41.781Z,13.94
2022-08-22T01:59:42.443Z,13.89
2022-08-22T02:02:51.279Z,13.74
2022-08-22T02:06:03.045Z,13.73
2022-08-22T02:09:08.655Z,13.50
2022-08-22T02:12:45.254Z,13.81
2022-08-22T02:15:41.210Z,13.84
2022-08-22T02:18:42.259Z,13.99
2022-08-22T02:21:55.296Z,14.10
2022-08-22T02:24:54.632Z,13.97
2022-08-22T02:27:54.154Z,13.84
2022-08-22T02:31:03.997Z,13.63
2022-08-22T02:33:58.340Z,13.97
2022-08-22T02:37:13.142Z,13.85
2022-08-22T02:40:46.556Z,12.65
2022-08-22T02:43:45.257Z,13.07
2022-08-22T02:46:54.708Z,12.52
2022-08-22T02:49:51.895Z,12.80
2022-08-22T02:53:02.834Z,12.21
2022-08-22T02:56:00.628Z,12.18
2022-08-22T02:58:53.775Z,12.94
2022-08-22T03:01:46.752Z,13.05
2022-08-22T03:04:33.850Z,13.16
2022-08-22T03:07:20.735Z,12.99
2022-08-22T03:10:26.191Z,12.79
2022-08-22T03:13:24.969Z,12.70
2022-08-22T03:16:34.064Z,12.42
2022-08-22T03:19:56.516Z,12.69
2022-08-22T03:22:48.544Z,12.92
2022-08-22T03:26:13.085Z,12.89
2022-08-22T03:29:08.129Z,12.91
2022-08-22T03:32:07.028Z,13.11
2022-08-22T03:35:09.236Z,12.91
2022-08-22T03:38:23.274Z,12.88
2022-08-22T03:41:22.676Z,13.19
2022-08-22T03:44:47.520Z,12.97
2022-08-22T03:48:03.710Z,13.00
2022-08-22T03:51:28.977Z,12.56
2022-08-22T03:54:40.404Z,12.58
2022-08-22T03:58:13.646Z,12.87
2022-08-22T04:01:41.975Z,12.97
2022-08-22T04:05:06.519Z,12.57
2022-08-22T04:08:01.946Z,12.75
2022-08-22T04:11:17.283Z,12.80
2022-08-22T04:14:13.293Z,12.93
2022-08-22T04:17:17.108Z,12.80
2022-08-22T04:20:19.567Z,12.74
2022-08-22T04:23:41.057Z,12.72
2022-08-22T04:26:49.103Z,12.85
2022-08-22T04:29:49.956Z,12.15
2022-08-22T04:32:43.983Z,11.78
2022-08-22T04:36:03.466Z,11.93
2022-08-22T04:39:09.091Z,12.07
2022-08-22T04:42:32.234Z,12.26
2022-08-22T04:45:29.747Z,12.25
2022-08-22T04:48:26.775Z,12.21
2022-08-22T04:51:25.907Z,12.36
2022-08-22T04:54:26.125Z,12.11
2022-08-22T04:57:45.653Z,11.78
2022-08-22T05:01:03.628Z,11.40
2022-08-22T05:04:22.907Z,11.58
2022-08-22T05:07:18.225Z,12.09
2022-08-22T05:10:22.941Z,12.56
2022-08-22T05:13:18.155Z,12.48
2022-08-22T05:16:12.421Z,12.60
2022-08-22T05:19:11.076Z,12.90
2022-08-22T05:22:01.802Z,12.85
2022-08-22T05:24:52.112Z,12.80
2022-08-22T05:27:44.276Z,13.07
2022-08-22T05:30:33.971Z,13.32
2022-08-22T05:33:30.408Z,13.15
2022-08-22T05:36:24.318Z,13.23
2022-08-22T05:39:21.944Z,12.90
2022-08-22T05:42:18.487Z,13.03
2022-08-22T05:45:08.554Z,13.87
2022-08-22T05:48:05.244Z,13.79
2022-08-22T05:50:58.627Z,13.44
2022-08-22T05:53:53.621Z,13.17
2022-08-22T05:56:49.888Z,13.21
2022-08-22T05:59:41.876Z,13.20
2022-08-22T06:03:00.195Z,14.40
2022-08-22T06:05:52.184Z,14.69
2022-08-22T06:08:44.317Z,15.87
2022-08-22T06:11:40.687Z,17.49
2022-08-22T06:14:52.213Z,18.82
2022-08-22T06:17:45.700Z,17.92
2022-08-22T06:20:45.903Z,17.02
2022-08-22T06:23:33.301Z,17.27
2022-08-22T06:26:21.541Z,17.75
2022-08-22T06:29:14.381Z,17.88
2022-08-22T06:32:08.544Z,16.70
2022-08-22T06:35:01.993Z,17.03
2022-08-22T06:37:50.996Z,17.19
2022-08-22T06:40:41.299Z,18.03
2022-08-22T06:43:36.801Z,19.56
2022-08-22T06:46:28.306Z,18.81
2022-08-22T06:49:16.776Z,20.14
2022-08-22T06:52:08.528Z,20.75
2022-08-22T06:55:03.054Z,20.09
2022-08-22T06:57:53.767Z,20.93
2022-08-22T07:00:43.317Z,21.50
2022-08-22T07:03:36.888Z,19.15
2022-08-22T07:06:35.898Z,20.79
2022-08-22T07:09:25.440Z,21.69
2022-08-22T07:12:26.809Z,22.61
2022-08-22T07:15:39.863Z,22.86
2022-08-22T07:18:30.023Z,22.72
2022-08-22T07:21:42.539Z,22.42
2022-08-22T07:24:32.931Z,24.48
2022-08-22T07:27:25.906Z,24.13
2022-08-22T07:30:27.322Z,23.61
2022-08-22T07:33:44.304Z,24.40
2022-08-22T07:36:54.992Z,22.59
2022-08-22T07:39:54.177Z,22.27
2022-08-22T07:43:00.978Z,22.55
2022-08-22T07:45:55.818Z,23.13
2022-08-22T07:49:08.707Z,22.68
2022-08-22T07:52:00.629Z,22.02
2022-08-22T07:55:06.752Z,22.28
2022-08-22T07:57:58.066Z,23.23
2022-08-22T08:00:48.995Z,23.45
2022-08-22T08:03:36.900Z,23.29
2022-08-22T08:06:25.514Z,22.47
2022-08-22T08:09:16.888Z,22.93
2022-08-22T08:12:06.042Z,22.85
2022-08-22T08:14:55.828Z,23.18
2022-08-22T08:17:44.704Z,23.84
2022-08-22T08:20:34.624Z,23.02
2022-08-22T08:23:23.729Z,23.30
2022-08-22T08:26:15.963Z,24.40
2022-08-22T08:29:04.825Z,24.28
2022-08-22T08:31:53.050Z,23.28
2022-08-22T08:34:43.447Z,23.34
2022-08-22T08:37:41.551Z,23.26
2022-08-22T08:40:31.324Z,23.29
2022-08-22T08:43:34.879Z,23.49
2022-08-22T08:46:39.876Z,25.56
2022-08-22T08:49:42.118Z,26.53
2022-08-22T08:52:54.230Z,25.07
2022-08-22T08:56:12.165Z,25.05
2022-08-22T08:59:17.347Z,25.71
2022-08-22T09:02:13.891Z,25.69
2022-08-22T09:05:41.649Z,26.84
2022-08-22T09:08:34.598Z,24.88
2022-08-22T09:11:59.895Z,26.83
2022-08-22T09:15:31.625Z,26.96
2022-08-22T09:19:00.539Z,25.72
2022-08-22T09:22:05.538Z,27.58
2022-08-22T09:25:39.244Z,25.18
2022-08-22T09:29:00.391Z,25.86
2022-08-22T09:32:03.518Z,27.40
2022-08-22T09:35:22.565Z,26.14
2022-08-22T09:38:22.208Z,29.51
2022-08-22T09:41:41.255Z,27.66
2022-08-22T09:44:39.767Z,25.19
2022-08-22T09:47:34.563Z,27.06
2022-08-22T09:50:35.688Z,25.73
2022-08-22T09:54:01.195Z,28.59
2022-08-22T09:57:10.879Z,27.77
2022-08-22T10:00:01.057Z,27.90
2022-08-22T10:03:17.112Z,27.30
2022-08-22T10:06:13.157Z,27.20
2022-08-22T10:09:18.893Z,27.83
2022-08-22T10:12:19.523Z,27.65
2022-08-22T10:15:11.807Z,27.82
2022-08-22T10:18:20.456Z,28.17
2022-08-22T10:21:25.308Z,29.07
2022-08-22T10:24:43.553Z,28.98
2022-08-22T10:27:59.048Z,29.49
2022-08-22T10:30:57.864Z,28.87
2022-08-22T10:34:07.907Z,28.37
2022-08-22T10:37:15.680Z,28.35
2022-08-22T10:40:08.555Z,29.08
2022-08-22T10:43:05.956Z,29.25
2022-08-22T10:46:03.636Z,30.31
2022-08-22T10:49:05.939Z,29.18
2022-08-22T10:52:15.268Z,29.38
2022-08-22T10:55:13.669Z,31.05
2022-08-22T10:58:11.027Z,27.68
2022-08-22T11:01:01.377Z,25.85
2022-08-22T11:04:28.370Z,24.54
2022-08-22T11:07:50.224Z,23.62
2022-08-22T11:10:52.103Z,22.78
2022-08-22T11:13:46.473Z,23.10
2022-08-22T11:16:41.768Z,26.03
2022-08-22T11:19:57.516Z,30.14
2022-08-22T11:23:18.653Z,30.81
2022-08-22T11:26:15.141Z,28.12
2022-08-22T11:29:43.575Z,30.98
2022-08-22T11:32:36.752Z,29.97
2022-08-22T11:35:31.876Z,26.40
2022-08-22T11:38:22.187Z,24.28
2022-08-22T11:41:24.030Z,27.08
2022-08-22T11:44:29.796Z,30.24
2022-08-22T11:47:20.523Z,32.55
2022-08-22T11:50:35.204Z,32.42
2022-08-22T11:53:34.177Z,29.21
2022-08-22T11:56:27.311Z,29.04
2022-08-22T11:59:29.777Z,29.99
2022-08-22T12:02:26.292Z,31.34
2022-08-22T12:05:20.008Z,32.25
2022-08-22T12:08:14.118Z,29.56
2022-08-22T12:11:07.033Z,26.26
2022-08-22T12:14:06.129Z,28.31
2022-08-22T12:17:08.774Z,31.40
2022-08-22T12:20:40.489Z,28.50
2022-08-22T12:23:49.745Z,29.78
2022-08-22T12:27:07.908Z,29.27
2022-08-22T12:30:14.208Z,28.75
2022-08-22T12:33:23.011Z,24.73
2022-08-22T12:36:45.266Z,24.77
2022-08-22T12:40:10.552Z,24.77
2022-08-22T12:43:12.722Z,24.92
2022-08-22T12:46:15.557Z,27.15
2022-08-22T12:49:38.571Z,30.82
2022-08-22T12:53:03.034Z,28.05
2022-08-22T12:56:33.203Z,31.74
2022-08-22T12:59:23.706Z,30.15
2022-08-22T13:02:28.064Z,25.10
2022-08-22T13:05:24.794Z,24.92
2022-08-22T13:08:22.317Z,24.68
2022-08-22T13:11:23.016Z,25.31
2022-08-22T13:14:18.221Z,29.14
2022-08-22T13:17:25.068Z,29.12
2022-08-22T13:20:24.285Z,31.12
2022-08-22T13:23:20.036Z,28.39
2022-08-22T13:26:16.373Z,27.31
2022-08-22T13:29:39.349Z,29.93
2022-08-22T13:32:33.147Z,30.78
2022-08-22T13:36:10.893Z,27.64
2022-08-22T13:39:06.595Z,24.65
2022-08-22T13:42:00.253Z,23.93
2022-08-22T13:44:52.548Z,24.37
2022-08-22T13:47:50.881Z,24.13
2022-08-22T13:50:53.917Z,23.93
2022-08-22T13:54:01.892Z,24.06
2022-08-22T13:57:20.097Z,24.36
2022-08-22T14:00:29.110Z,24.93
2022-08-22T14:03:22.763Z,26.76
2022-08-22T14:06:36.857Z,25.96
2022-08-22T14:10:02.772Z,29.45
2022-08-22T14:12:55.796Z,27.37
2022-08-22T14:15:45.380Z,27.44
2022-08-22T14:18:45.685Z,29.28
2022-08-22T14:21:40.086Z,29.84
2022-08-22T14:24:45.927Z,29.96
2022-08-22T14:28:00.973Z,29.35
2022-08-22T14:31:07.164Z,29.10
2022-08-22T14:33:59.847Z,26.61
2022-08-22T14:37:13.003Z,28.89
2022-08-22T14:40:03.046Z,29.16
2022-08-22T14:43:01.605Z,28.27
2022-08-22T14:46:23.442Z,27.55
2022-08-22T14:49:20.358Z,28.62
2022-08-22T14:52:25.652Z,27.77
2022-08-22T14:55:26.452Z,26.92
2022-08-22T14:58:26.346Z,28.72
2022-08-22T15:01:19.639Z,28.93
2022-08-22T15:04:13.856Z,27.08
2022-08-22T15:07:05.539Z,27.48
2022-08-22T15:09:56.498Z,28.58
2022-08-22T15:12:51.375Z,27.46
2022-08-22T15:15:52.562Z,27.76
2022-08-22T15:18:51.422Z,26.58
2022-08-22T15:21:41.605Z,26.25
2022-08-22T15:24:29.458Z,25.88
2022-08-22T15:27:21.324Z,25.70
2022-08-22T15:30:20.342Z,26.26
2022-08-22T15:33:39.915Z,26.37
2022-08-22T15:36:30.336Z,26.64
2022-08-22T15:39:57.350Z,25.83
2022-08-22T15:42:49.021Z,26.30
2022-08-22T15:45:39.158Z,26.11
2022-08-22T15:48:39.214Z,25.52
2022-08-22T15:51:52.751Z,24.85
2022-08-22T15:54:46.965Z,24.37
2022-08-22T15:57:42.243Z,24.36
2022-08-22T16:00:43.422Z,24.59
2022-08-22T16:03:34.198Z,23.98
2022-08-22T16:07:09.484Z,24.22
2022-08-22T16:09:59.569Z,24.51
2022-08-22T16:13:07.573Z,24.48
2022-08-22T16:16:01.750Z,24.19
2022-08-22T16:18:48.839Z,24.22
2022-08-22T16:21:39.208Z,23.86
2022-08-22T16:24:26.218Z,24.34
2022-08-22T16:27:22.823Z,24.07
2022-08-22T16:30:14.237Z,24.10
2022-08-22T16:33:01.901Z,24.02
2022-08-22T16:36:24.297Z,23.96
2022-08-22T16:39:23.112Z,24.02
2022-08-22T16:42:13.410Z,24.21
2022-08-22T16:45:05.433Z,23.82
2022-08-22T16:47:59.339Z,23.98
2022-08-22T16:51:01.872Z,24.03
2022-08-22T16:54:11.316Z,24.27
2022-08-22T16:57:07.666Z,24.13
2022-08-22T17:00:13.381Z,23.95
2022-08-22T17:03:25.507Z,23.92
2022-08-22T17:06:37.313Z,23.88
2022-08-22T17:09:43.388Z,24.29
2022-08-22T17:12:45.499Z,24.02
2022-08-22T17:16:17.620Z,23.91
2022-08-22T17:19:20.008Z,23.81
2022-08-22T17:22:41.505Z,23.72
2022-08-22T17:25:53.241Z,23.68
2022-08-22T17:28:42.506Z,23.02
2022-08-22T17:31:46.347Z,22.83
2022-08-22T17:34:43.855Z,22.86
2022-08-22T17:37:55.101Z,22.90
2022-08-22T17:41:11.770Z,22.83
2022-08-22T17:44:04.965Z,22.81
2022-08-22T17:47:27.375Z,22.65
2022-08-22T17:50:30.796Z,22.27
2022-08-22T17:53:33.151Z,22.18
2022-08-22T17:56:45.626Z,21.60
2022-08-22T17:59:37.012Z,21.20
2022-08-22T18:02:32.864Z,20.91
2022-08-22T18:05:22.653Z,20.59
2022-08-22T18:11:54.343Z,19.91
2022-08-22T18:14:59.701Z,19.64
2022-08-22T18:18:05.199Z,19.53
2022-08-22T18:21:05.690Z,19.81
2022-08-22T18:23:59.146Z,19.82
2022-08-22T18:26:57.832Z,20.07
2022-08-22T18:29:52.499Z,19.97
2022-08-22T18:32:55.540Z,19.80
2022-08-22T18:35:53.865Z,19.63
2022-08-22T18:38:59.975Z,19.32
2022-08-22T18:42:09.780Z,19.12
2022-08-22T18:44:57.221Z,18.96
2022-08-22T18:47:55.336Z,18.88
2022-08-22T18:50:42.853Z,18.83
2022-08-22T18:53:46.292Z,18.46
2022-08-22T18:56:54.705Z,18.11
2022-08-22T18:59:46.994Z,18.36
2022-08-22T19:03:14.706Z,18.79
2022-08-22T19:06:18.921Z,18.70
2022-08-22T19:09:27.526Z,18.49
2022-08-22T19:12:39.296Z,18.36
2022-08-22T19:15:50.736Z,18.20
2022-08-22T19:18:51.265Z,18.15
2022-08-22T19:21:57.054Z,18.19
2022-08-22T19:25:09.170Z,18.31
2022-08-22T19:28:11.538Z,18.25
2022-08-22T19:31:22.412Z,18.08
2022-08-22T19:34:35.653Z,17.94
2022-08-22T19:37:30.546Z,17.99
2022-08-22T19:40:45.406Z,17.84
2022-08-22T19:43:40.514Z,18.00
2022-08-22T19:46:38.193Z,17.89
2022-08-22T19:49:43.792Z,17.93
2022-08-22T19:52:46.764Z,17.94
2022-08-22T19:55:39.494Z,17.89
2022-08-22T19:58:32.776Z,17.76
2022-08-22T20:01:36.178Z,17.72
2022-08-22T20:05:08.677Z,17.58
2022-08-22T20:08:24.931Z,17.60
2022-08-22T20:11:45.425Z,17.65
2022-08-22T20:14:36.144Z,17.65
2022-08-22T20:17:25.913Z,17.70
2022-08-22T20:20:23.974Z,17.62
2022-08-22T20:23:29.680Z,17.51
2022-08-22T20:26:16.843Z,17.48
2022-08-22T20:29:07.237Z,17.36
2022-08-22T20:31:58.751Z,17.34
2022-08-22T20:34:47.657Z,17.47
2022-08-22T20:38:05.372Z,17.39
2022-08-22T20:41:05.580Z,17.07
2022-08-22T20:44:06.263Z,17.07
2022-08-22T20:47:02.135Z,17.18
2022-08-22T20:50:01.857Z,17.14
2022-08-22T20:52:51.998Z,17.37
2022-08-22T20:55:54.009Z,17.24
2022-08-22T20:58:47.119Z,17.13
2022-08-22T21:01:34.647Z,17.15
2022-08-22T21:04:25.530Z,17.17
2022-08-22T21:07:21.010Z,17.15
2022-08-22T21:10:48.939Z,17.12
2022-08-22T21:13:37.820Z,17.07
2022-08-22T21:16:33.479Z,16.79
2022-08-22T21:19:26.367Z,16.55
2022-08-22T21:22:29.545Z,16.77
2022-08-22T21:25:17.055Z,16.73
2022-08-22T21:28:04.132Z,16.47
2022-08-22T21:30:51.241Z,16.56
2022-08-22T21:33:43.712Z,16.80
2022-08-22T21:36:31.890Z,16.83
2022-08-22T21:39:36.618Z,16.82
2022-08-22T21:42:35.584Z,16.74
2022-08-22T21:45:37.994Z,16.70
2022-08-22T21:48:44.300Z,16.53
2022-08-22T21:51:44.162Z,16.57
2022-08-22T21:54:40.196Z,16.24
2022-08-22T21:57:35.609Z,16.51
2022-08-22T22:00:59.953Z,16.63
2022-08-22T22:03:47.591Z,16.69
2022-08-22T22:06:35.038Z,16.58
2022-08-22T22:09:22.645Z,16.50
2022-08-22T22:12:12.749Z,16.27
2022-08-22T22:14:59.998Z,16.35
2022-08-22T22:17:47.578Z,16.25
2022-08-22T22:20:34.768Z,16.35
2022-08-22T22:23:22.569Z,16.17
2022-08-22T22:26:09.625Z,15.95
2022-08-22T22:28:58.759Z,15.77
2022-08-22T22:31:45.771Z,15.18
2022-08-22T22:34:32.765Z,14.49
2022-08-22T22:37:19.803Z,14.06
2022-08-22T22:40:08.721Z,14.12
2022-08-22T22:42:55.895Z,14.10
2022-08-22T22:45:42.786Z,14.31
2022-08-22T22:48:29.901Z,14.42
2022-08-22T22:51:16.831Z,14.87
2022-08-22T22:54:03.878Z,14.85
2022-08-22T22:56:51.819Z,15.47
2022-08-22T22:59:38.951Z,14.55
2022-08-22T23:02:27.320Z,13.99
2022-08-22T23:05:14.547Z,13.69
2022-08-22T23:08:03.743Z,13.21
2022-08-22T23:10:50.758Z,12.93
2022-08-22T23:13:39.722Z,12.89
2022-08-22T23:16:32.895Z,13.27
2022-08-22T23:19:24.737Z,13.83
2022-08-22T23:22:11.715Z,13.87
2022-08-22T23:24:58.660Z,13.99
2022-08-22T23:27:52.104Z,14.08
2022-08-22T23:30:39.558Z,13.64
2022-08-22T23:33:26.520Z,12.94
2022-08-22T23:36:18.992Z,12.62
2022-08-22T23:39:07.069Z,12.61
2022-08-22T23:41:54.331Z,12.61
2022-08-22T23:44:42.535Z,12.33
2022-08-22T23:47:29.567Z,12.84
2022-08-22T23:50:16.533Z,13.12
2022-08-22T23:53:03.553Z,13.44
2022-08-22T23:55:50.590Z,13.52
2022-08-22T23:58:37.726Z,13.74
